Time;durP1;ratioP1;P1;durP2;ratioP2;P2;SDS_P1;SDS_P2;PMS_P1;PMS_P2;Temp;Humidity;BMP_temperature;BMP_pressure;BME280_temperature;BME280_humidity;BME280_pressure;Samples;Min_cycle;Max_cycle;Signal;HPM_P1;HPM_P2
2022/04/28 00:00:44;;;;;;;16.00;14.10;;;9.50;99.90;;;;;;6096018;23;20848;-87
2022/04/28 00:03:11;;;;;;;14.73;13.37;;;9.50;99.90;;;;;;6096823;23;20411;-87
2022/04/28 00:05:39;;;;;;;14.17;12.83;;;9.40;99.90;;;;;;6095615;23;20421;-87
2022/04/28 00:08:06;;;;;;;14.63;13.17;;;9.30;99.90;;;;;;6096495;23;20381;-87
2022/04/28 00:10:35;;;;;;;14.27;12.70;;;9.30;99.90;;;;;;6095879;23;20408;-87
2022/04/28 00:13:02;;;;;;;15.23;13.67;;;9.30;99.90;;;;;;6100855;23;20415;-87
2022/04/28 00:15:29;;;;;;;16.10;12.67;;;9.30;99.90;;;;;;6122872;23;20389;-87
2022/04/28 00:17:56;;;;;;;14.00;12.67;;;9.20;99.90;;;;;;6096806;23;20491;-87
2022/04/28 00:20:23;;;;;;;15.37;13.87;;;9.10;99.90;;;;;;6097072;23;20409;-88
2022/04/28 00:22:50;;;;;;;14.80;13.40;;;9.10;99.90;;;;;;6096916;23;20416;-87
2022/04/28 00:25:17;;;;;;;14.10;12.80;;;9.10;99.90;;;;;;6120786;23;20403;-87
2022/04/28 00:27:45;;;;;;;14.73;13.27;;;9.00;99.90;;;;;;6124364;23;20397;-87
2022/04/28 00:30:11;;;;;;;16.00;14.57;;;9.00;99.90;;;;;;6113396;23;20464;-87
2022/04/28 00:32:38;;;;;;;13.67;12.47;;;9.00;99.90;;;;;;6107207;23;20421;-86
2022/04/28 00:35:05;;;;;;;16.03;14.53;;;8.90;99.90;;;;;;6121416;23;20397;-87
2022/04/28 00:37:32;;;;;;;14.63;13.23;;;8.80;99.90;;;;;;6105204;23;20448;-87
2022/04/28 00:39:59;;;;;;;14.07;12.77;;;8.90;99.90;;;;;;6117782;23;20401;-87
2022/04/28 00:42:26;;;;;;;14.30;12.80;;;8.80;99.90;;;;;;6097940;23;20460;-87
2022/04/28 00:44:54;;;;;;;15.50;14.00;;;8.80;99.90;;;;;;6105373;23;20408;-87
2022/04/28 00:47:22;;;;;;;13.13;11.73;;;8.80;99.90;;;;;;6104289;23;20801;-87
2022/04/28 00:52:35;;;;;;;14.20;12.90;;;8.80;99.90;;;;;;6113188;23;20388;-87
2022/04/28 00:55:02;;;;;;;14.63;13.23;;;8.80;99.90;;;;;;6123753;23;20381;-86
2022/04/28 00:57:33;;;;;;;14.93;13.50;;;8.70;99.90;;;;;;6122095;23;20451;-87
2022/04/28 01:00:02;;;;;;;14.27;12.97;;;8.70;99.90;;;;;;6114305;23;20389;-87
2022/04/28 01:02:29;;;;;;;15.23;13.77;;;8.60;99.90;;;;;;6118006;23;20384;-86
2022/04/28 01:04:56;;;;;;;15.00;13.70;;;8.60;99.90;;;;;;6125377;23;20392;-86
2022/04/28 01:07:22;;;;;;;13.77;12.40;;;8.70;99.90;;;;;;6108664;23;20432;-87
2022/04/28 01:09:49;;;;;;;14.07;12.63;;;8.70;99.90;;;;;;6099960;23;20419;-87
2022/04/28 01:12:16;;;;;;;13.10;11.77;;;8.70;99.90;;;;;;6099170;23;20407;-87
2022/04/28 01:14:44;;;;;;;18.83;13.83;;;8.60;99.90;;;;;;6098932;23;20392;-87
2022/04/28 01:17:12;;;;;;;16.03;14.53;;;8.60;99.90;;;;;;6100343;23;20447;-87
2022/04/28 01:19:39;;;;;;;16.00;14.40;;;8.50;99.90;;;;;;6121889;23;20442;-87
2022/04/28 01:22:08;;;;;;;17.60;14.10;;;8.50;99.90;;;;;;6123620;23;20427;-87
2022/04/28 01:24:36;;;;;;;14.97;13.60;;;8.40;99.90;;;;;;6116115;23;20420;-87
2022/04/28 01:27:05;;;;;;;15.83;14.23;;;8.40;99.90;;;;;;6111772;23;20798;-87
2022/04/28 01:29:32;;;;;;;15.80;14.20;;;8.40;99.90;;;;;;6110062;23;20424;-86
2022/04/28 01:31:59;;;;;;;14.80;13.40;;;8.40;99.90;;;;;;6119156;23;20471;-86
2022/04/28 01:34:26;;;;;;;14.97;13.40;;;8.40;99.90;;;;;;6123415;23;20419;-86
2022/04/28 01:36:53;;;;;;;16.43;13.70;;;8.40;99.90;;;;;;6123277;23;20429;-87
2022/04/28 01:39:21;;;;;;;15.70;14.30;;;8.40;99.90;;;;;;6103862;23;20815;-87
2022/04/28 01:41:48;;;;;;;16.23;14.30;;;8.30;99.90;;;;;;6101174;23;20396;-87
2022/04/28 01:44:15;;;;;;;15.07;13.60;;;8.30;99.90;;;;;;6125677;23;20419;-86
2022/04/28 01:46:42;;;;;;;15.10;13.20;;;8.30;99.90;;;;;;6123106;23;20491;-87
2022/04/28 01:49:08;;;;;;;14.90;13.50;;;8.30;99.90;;;;;;6124027;23;20389;-87
2022/04/28 01:57:05;;;;;;;13.13;12.03;;;8.20;99.90;;;;;;6113108;23;20463;-87
2022/04/28 01:59:32;;;;;;;14.03;12.63;;;8.20;99.90;;;;;;6116929;23;20400;-86
2022/04/28 02:01:59;;;;;;;13.50;12.20;;;8.20;99.90;;;;;;6119400;23;20451;-87
2022/04/28 02:04:25;;;;;;;14.83;13.53;;;8.20;99.90;;;;;;6102366;23;20393;-87
2022/04/28 02:06:52;;;;;;;14.47;12.97;;;8.30;99.90;;;;;;6102855;23;20433;-87
2022/04/28 02:09:20;;;;;;;13.90;12.60;;;8.20;99.90;;;;;;6099045;23;20408;-87
2022/04/28 02:11:47;;;;;;;13.80;12.47;;;8.20;99.90;;;;;;6098600;23;20789;-87
2022/04/28 02:14:14;;;;;;;13.53;12.23;;;8.10;99.90;;;;;;6117898;23;20433;-87
2022/04/28 02:16:40;;;;;;;13.37;12.17;;;8.10;99.90;;;;;;6119166;23;20460;-87
2022/04/28 02:19:07;;;;;;;14.20;12.80;;;8.10;99.90;;;;;;6102468;23;20401;-87
2022/04/28 02:21:34;;;;;;;14.20;12.80;;;8.20;99.90;;;;;;6099790;23;20408;-87
2022/04/28 02:24:00;;;;;;;14.60;13.30;;;8.10;99.90;;;;;;6098197;23;20416;-87
2022/04/28 02:26:28;;;;;;;13.97;12.57;;;8.20;99.90;;;;;;6096810;23;20942;-87
2022/04/28 02:28:55;;;;;;;15.17;13.63;;;8.20;99.90;;;;;;6097361;23;20412;-87
2022/04/28 02:31:22;;;;;;;14.23;12.17;;;8.10;99.90;;;;;;6097824;23;20419;-86
2022/04/28 02:33:48;;;;;;;15.67;12.23;;;8.00;99.90;;;;;;6097482;23;20479;-87
2022/04/28 02:36:15;;;;;;;13.67;12.37;;;7.90;99.90;;;;;;6097242;23;20430;-87
2022/04/28 02:38:42;;;;;;;16.67;13.27;;;7.80;99.90;;;;;;6098574;23;20923;-87
2022/04/28 02:41:08;;;;;;;14.80;13.50;;;7.80;99.90;;;;;;6121087;23;20397;-87
2022/04/28 02:43:37;;;;;;;15.70;14.20;;;7.80;99.90;;;;;;6102002;23;20422;-87
2022/04/28 02:46:03;;;;;;;14.40;12.90;;;7.80;99.90;;;;;;6097723;23;20425;-88
2022/04/28 02:48:30;;;;;;;14.90;13.47;;;7.80;99.90;;;;;;6097487;23;20413;-87
2022/04/28 02:50:57;;;;;;;14.47;13.00;;;7.80;99.90;;;;;;6097095;23;20417;-87
2022/04/28 02:53:23;;;;;;;14.50;13.07;;;7.80;99.90;;;;;;6097267;23;20900;-87
2022/04/28 02:55:50;;;;;;;16.00;14.50;;;7.80;99.90;;;;;;6107073;23;20436;-87
2022/04/28 02:58:17;;;;;;;15.27;13.70;;;7.70;99.90;;;;;;6123511;23;20424;-87
2022/04/28 03:00:45;;;;;;;14.83;13.43;;;7.70;99.90;;;;;;6103856;23;20420;-87
2022/04/28 03:03:12;;;;;;;13.93;12.53;;;7.70;99.90;;;;;;6124876;23;20424;-87
2022/04/28 03:11:04;;;;;;;14.97;13.60;;;7.60;99.90;;;;;;6098481;23;20396;-87
2022/04/28 03:13:32;;;;;;;15.40;13.90;;;7.60;99.90;;;;;;6097881;23;20404;-87
2022/04/28 03:16:00;;;;;;;13.57;12.37;;;7.50;99.90;;;;;;6109099;23;20428;-87
2022/04/28 03:18:27;;;;;;;14.50;13.10;;;7.50;99.90;;;;;;6105796;23;20451;-87
2022/04/28 03:20:54;;;;;;;15.67;13.97;;;7.50;99.90;;;;;;6097926;23;20439;-87
2022/04/28 03:23:21;;;;;;;14.10;12.73;;;7.40;99.90;;;;;;6096947;23;20401;-88
2022/04/28 03:25:49;;;;;;;18.77;13.43;;;7.40;99.90;;;;;;6096750;23;20428;-87
2022/04/28 03:28:16;;;;;;;15.23;13.70;;;7.40;99.90;;;;;;6097244;23;20412;-87
2022/04/28 03:30:43;;;;;;;15.87;14.40;;;7.40;99.90;;;;;;6096999;23;20508;-87
2022/04/28 03:33:12;;;;;;;15.20;13.70;;;7.40;99.90;;;;;;6096956;23;20418;-87
2022/04/28 03:35:38;;;;;;;14.93;13.53;;;7.40;99.90;;;;;;6095930;23;20468;-87
2022/04/28 03:38:07;;;;;;;13.57;12.20;;;7.40;99.90;;;;;;6096370;23;20448;-88
2022/04/28 03:40:34;;;;;;;15.13;13.63;;;7.40;99.90;;;;;;6096627;23;20397;-87
2022/04/28 03:43:01;;;;;;;14.87;13.43;;;7.30;99.90;;;;;;6100796;23;20412;-88
2022/04/28 03:45:28;;;;;;;15.33;13.77;;;7.40;99.90;;;;;;6119562;23;20435;-87
2022/04/28 03:47:55;;;;;;;13.70;12.40;;;7.30;99.90;;;;;;6116672;23;20436;-87
2022/04/28 03:50:24;;;;;;;14.63;13.17;;;7.30;99.90;;;;;;6100112;23;20444;-87
2022/04/28 03:52:51;;;;;;;16.40;12.80;;;7.20;99.90;;;;;;6119840;23;20385;-87
2022/04/28 03:55:18;;;;;;;15.63;13.67;;;7.20;99.90;;;;;;6113214;23;20538;-88
2022/04/28 03:57:45;;;;;;;14.63;13.13;;;7.20;99.90;;;;;;6102847;23;20440;-87
2022/04/28 04:00:13;;;;;;;14.93;13.43;;;7.10;99.90;;;;;;6118573;23;20412;-87
2022/04/28 04:02:40;;;;;;;13.07;11.83;;;7.10;99.90;;;;;;6120616;23;20405;-87
2022/04/28 04:05:09;;;;;;;15.60;14.17;;;7.00;99.90;;;;;;6112642;23;20409;-87
2022/04/28 04:07:38;;;;;;;15.30;13.70;;;7.00;99.90;;;;;;6106869;23;20895;-88
2022/04/28 04:10:05;;;;;;;16.07;12.67;;;7.00;99.90;;;;;;6097412;23;20416;-87
2022/04/28 04:12:32;;;;;;;15.20;13.80;;;7.10;99.90;;;;;;6097883;23;20407;-87
2022/04/28 04:14:59;;;;;;;12.93;11.80;;;7.10;99.90;;;;;;6122619;23;20407;-87
2022/04/28 04:17:26;;;;;;;14.77;13.33;;;7.10;99.90;;;;;;6114784;23;20448;-87
2022/04/28 04:19:52;;;;;;;15.23;13.93;;;7.00;99.90;;;;;;6107056;23;20416;-87
2022/04/28 04:22:19;;;;;;;14.57;13.07;;;7.00;99.90;;;;;;6121840;23;20432;-88
2022/04/28 04:24:47;;;;;;;16.03;14.40;;;7.00;99.90;;;;;;6119930;23;20876;-87
2022/04/28 04:27:15;;;;;;;15.93;14.43;;;7.00;99.90;;;;;;6121830;23;20413;-88
2022/04/28 04:29:42;;;;;;;15.57;13.03;;;7.00;99.90;;;;;;6115938;23;20408;-87
2022/04/28 04:32:20;;;;;;;16.43;14.80;;;7.10;99.90;;;;;;6103297;23;20408;-87
2022/04/28 04:34:48;;;;;;;13.30;12.10;;;7.10;99.90;;;;;;6099467;23;20388;-88
2022/04/28 04:37:15;;;;;;;16.80;15.23;;;7.10;99.90;;;;;;6099638;23;20436;-87
2022/04/28 04:39:42;;;;;;;14.67;13.37;;;7.20;99.90;;;;;;6099873;23;20413;-88
2022/04/28 04:42:10;;;;;;;16.27;13.77;;;7.10;99.90;;;;;;6109532;23;20400;-87
2022/04/28 04:44:37;;;;;;;14.80;13.50;;;7.20;99.90;;;;;;6114668;23;20460;-87
2022/04/28 04:47:04;;;;;;;15.27;13.80;;;7.20;99.90;;;;;;6121525;23;20417;-87
2022/04/28 04:49:31;;;;;;;13.33;12.03;;;7.30;99.90;;;;;;6123358;23;20421;-87
2022/04/28 04:51:58;;;;;;;15.00;13.50;;;7.50;99.90;;;;;;6101940;23;20404;-87
2022/04/28 04:54:24;;;;;;;14.47;13.07;;;7.80;99.90;;;;;;6100551;23;20435;-87
2022/04/28 04:56:51;;;;;;;13.73;12.33;;;8.10;99.90;;;;;;6100535;23;20419;-87
2022/04/28 04:59:19;;;;;;;13.60;12.33;;;8.40;99.90;;;;;;6099169;23;20436;-87
2022/04/28 05:01:46;;;;;;;15.80;11.83;;;8.80;99.90;;;;;;6099831;23;20408;-87
2022/04/28 05:04:13;;;;;;;13.67;12.27;;;9.10;99.90;;;;;;6100454;23;20747;-87
2022/04/28 05:06:39;;;;;;;13.80;12.53;;;9.50;99.90;;;;;;6099591;23;20448;-87
2022/04/28 05:09:06;;;;;;;13.70;12.40;;;9.80;99.90;;;;;;6099460;23;20408;-87
2022/04/28 05:11:33;;;;;;;15.07;13.13;;;10.00;99.90;;;;;;6099431;23;20420;-88
2022/04/28 05:13:59;;;;;;;12.17;11.00;;;10.30;99.90;;;;;;6101104;23;20416;-87
2022/04/28 05:16:28;;;;;;;11.97;10.87;;;10.60;99.90;;;;;;6101239;23;20432;-87
2022/04/28 05:18:54;;;;;;;12.00;10.90;;;11.10;99.90;;;;;;6099962;23;20445;-88
2022/04/28 05:21:21;;;;;;;15.03;11.97;;;11.10;99.90;;;;;;6100394;23;20400;-87
2022/04/28 05:23:48;;;;;;;12.40;11.20;;;11.20;99.90;;;;;;6122252;23;20392;-86
2022/04/28 05:26:14;;;;;;;13.83;12.60;;;11.40;99.90;;;;;;6125596;23;20451;-86
2022/04/28 05:28:41;;;;;;;13.20;11.90;;;11.70;99.90;;;;;;6125067;23;20397;-87
2022/04/28 05:31:08;;;;;;;12.87;11.77;;;12.10;99.70;;;;;;6117214;23;20844;-87
2022/04/28 05:33:37;;;;;;;13.07;11.77;;;12.40;99.00;;;;;;6113179;23;20415;-87
2022/04/28 05:36:09;;;;;;;13.43;12.23;;;12.50;98.00;;;;;;6100554;23;20491;-87
2022/04/28 05:38:36;;;;;;;13.27;12.13;;;12.20;97.60;;;;;;6099408;23;20517;-87
2022/04/28 05:41:03;;;;;;;14.13;12.73;;;11.90;98.10;;;;;;6098446;23;20400;-87
2022/04/28 05:46:16;;;;;;;14.43;13.07;;;11.80;99.60;;;;;;6099812;23;20416;-87
2022/04/28 05:48:44;;;;;;;14.60;13.10;;;12.50;98.90;;;;;;6114347;23;20382;-87
2022/04/28 05:51:12;;;;;;;13.83;12.50;;;13.20;97.90;;;;;;6122028;23;20414;-87
2022/04/28 05:53:39;;;;;;;13.27;12.07;;;13.90;96.90;;;;;;6114863;23;20417;-87
2022/04/28 05:56:06;;;;;;;14.43;13.23;;;14.10;94.90;;;;;;6100001;23;20436;-87
2022/04/28 05:58:33;;;;;;;14.17;12.77;;;14.50;94.40;;;;;;6099609;23;20461;-88
2022/04/28 06:01:00;;;;;;;12.00;11.10;;;15.00;93.40;;;;;;6099183;23;20463;-87
2022/04/28 06:03:27;;;;;;;14.10;12.87;;;15.50;92.40;;;;;;6098925;23;20437;-87
2022/04/28 06:05:55;;;;;;;13.60;12.40;;;15.80;91.40;;;;;;6098052;23;20444;-87
2022/04/28 06:08:22;;;;;;;12.93;11.53;;;16.30;90.50;;;;;;6100309;23;20424;-88
2022/04/28 06:10:49;;;;;;;13.63;12.43;;;16.70;87.70;;;;;;6099603;23;20405;-88
2022/04/28 06:13:16;;;;;;;14.27;13.07;;;17.10;85.30;;;;;;6100109;23;20410;-89
2022/04/28 06:15:43;;;;;;;13.20;12.00;;;17.50;82.80;;;;;;6095746;23;20447;-88
2022/04/28 06:18:09;;;;;;;13.77;12.67;;;18.00;81.00;;;;;;6097020;23;20548;-88
2022/04/28 06:20:36;;;;;;;11.83;10.73;;;18.50;78.40;;;;;;6097372;23;20424;-88
2022/04/28 06:23:04;;;;;;;11.93;11.00;;;18.90;76.20;;;;;;6099113;23;20418;-90
2022/04/28 06:25:32;;;;;;;12.33;11.33;;;19.40;75.00;;;;;;6115202;23;20887;-88
2022/04/28 06:27:58;;;;;;;13.57;12.43;;;19.50;72.40;;;;;;6098071;23;20419;-87
2022/04/28 06:30:25;;;;;;;12.60;11.57;;;19.70;70.90;;;;;;6102614;23;20397;-88
2022/04/28 06:32:52;;;;;;;13.10;11.90;;;20.10;69.80;;;;;;6100482;23;20418;-87
2022/04/28 06:35:19;;;;;;;12.80;11.80;;;20.40;68.40;;;;;;6098592;23;20404;-87
2022/04/28 06:37:45;;;;;;;12.63;11.63;;;20.50;67.50;;;;;;6099037;23;20966;-87
2022/04/28 06:40:13;;;;;;;12.93;11.90;;;20.50;67.00;;;;;;6122448;23;20469;-88
2022/04/28 06:42:43;;;;;;;12.50;11.20;;;20.30;67.30;;;;;;6112433;23;20416;-87
2022/04/28 06:45:11;;;;;;;12.53;11.40;;;20.50;67.00;;;;;;6097131;23;20484;-87
2022/04/28 06:47:38;;;;;;;13.80;12.60;;;20.90;66.40;;;;;;6113699;23;20463;-86
2022/04/28 06:50:05;;;;;;;13.23;12.10;;;21.20;64.10;;;;;;6121621;23;20396;-86
2022/04/28 06:52:32;;;;;;;12.57;11.37;;;21.60;63.90;;;;;;6122989;23;20476;-88
2022/04/28 06:54:58;;;;;;;14.17;12.93;;;21.70;61.90;;;;;;6112512;23;20417;-89
2022/04/28 06:57:26;;;;;;;13.80;11.83;;;22.20;61.50;;;;;;6124189;23;20495;-88
2022/04/28 06:59:53;;;;;;;13.00;11.90;;;22.40;60.20;;;;;;6124974;23;20454;-87
2022/04/28 07:02:20;;;;;;;11.90;10.90;;;22.80;59.50;;;;;;6124978;23;20414;-89
2022/04/28 07:04:47;;;;;;;11.80;10.77;;;22.70;59.00;;;;;;6124266;23;20444;-89
2022/04/28 07:07:14;;;;;;;13.50;12.37;;;22.70;59.00;;;;;;6123182;23;20422;-89
2022/04/28 07:09:41;;;;;;;12.40;11.40;;;22.70;59.20;;;;;;6123190;23;20400;-87
2022/04/28 07:12:09;;;;;;;11.57;10.70;;;23.00;59.20;;;;;;6111219;23;20471;-88
2022/04/28 07:14:37;;;;;;;12.30;11.20;;;23.40;58.10;;;;;;6113643;23;20408;-86
2022/04/28 07:17:04;;;;;;;12.20;11.17;;;23.80;57.90;;;;;;6121293;23;20429;-87
2022/04/28 07:19:31;;;;;;;11.40;10.40;;;23.90;57.00;;;;;;6105748;23;20437;-88
2022/04/28 07:22:02;;;;;;;12.37;11.47;;;24.70;56.70;;;;;;6101083;23;20412;-88
2022/04/28 07:24:28;;;;;;;12.63;11.63;;;24.90;55.10;;;;;;6100656;23;20393;-88
2022/04/28 07:26:55;;;;;;;11.20;10.23;;;25.30;54.50;;;;;;6100633;23;20794;-89
2022/04/28 07:29:22;;;;;;;11.30;10.50;;;25.60;53.60;;;;;;6099287;23;20408;-88
2022/04/28 07:31:50;;;;;;;10.93;9.83;;;25.60;53.20;;;;;;6098479;23;20901;-87
2022/04/28 07:34:17;;;;;;;9.47;8.60;;;25.70;52.20;;;;;;6094471;23;20419;-89
2022/04/28 07:36:44;;;;;;;9.67;8.90;;;25.90;51.70;;;;;;6098351;23;20447;-88
2022/04/28 07:39:10;;;;;;;9.70;8.97;;;25.80;50.50;;;;;;6102947;23;20495;-88
2022/04/28 07:41:37;;;;;;;10.57;9.57;;;26.00;50.80;;;;;;6120319;23;20422;-89
2022/04/28 07:44:04;;;;;;;8.57;7.97;;;26.80;49.40;;;;;;6105578;23;20404;-88
2022/04/28 07:46:31;;;;;;;7.33;6.83;;;26.60;49.00;;;;;;6106661;23;20435;-89
2022/04/28 07:48:59;;;;;;;7.27;6.60;;;27.10;49.00;;;;;;6098672;23;20719;-89
2022/04/28 07:51:25;;;;;;;7.73;7.03;;;27.00;47.50;;;;;;6097955;23;20401;-88
2022/04/28 07:53:52;;;;;;;7.00;6.50;;;25.20;50.00;;;;;;6097190;23;20410;-89
2022/04/28 07:56:20;;;;;;;7.13;6.63;;;26.20;49.10;;;;;;6095978;23;20796;-88
2022/04/28 07:58:47;;;;;;;8.13;7.53;;;26.50;48.00;;;;;;6096421;23;20444;-88
2022/04/28 08:01:14;;;;;;;8.33;7.60;;;25.50;48.30;;;;;;6098192;23;20450;-88
2022/04/28 08:03:41;;;;;;;7.70;7.10;;;25.10;49.60;;;;;;6096915;23;20412;-88
2022/04/28 08:06:13;;;;;;;7.70;7.10;;;25.40;49.50;;;;;;6100941;23;20527;-88
2022/04/28 08:08:40;;;;;;;7.93;7.33;;;25.40;49.00;;;;;;6104022;23;20404;-89
2022/04/28 08:11:06;;;;;;;7.97;7.27;;;24.10;50.20;;;;;;6102474;23;20397;-89
2022/04/28 08:13:34;;;;;;;7.60;7.00;;;25.00;50.40;;;;;;6096375;23;20412;-88
2022/04/28 08:16:01;;;;;;;8.33;7.67;;;25.50;48.80;;;;;;6095524;23;20469;-88
2022/04/28 08:18:29;;;;;;;7.73;7.13;;;25.90;48.00;;;;;;6096723;23;20445;-88
2022/04/28 08:20:55;;;;;;;7.30;6.70;;;25.80;47.70;;;;;;6097882;23;20504;-88
2022/04/28 08:23:23;;;;;;;6.93;6.33;;;25.60;48.50;;;;;;6096865;23;20898;-89
2022/04/28 08:25:50;;;;;;;8.13;7.43;;;25.70;47.60;;;;;;6096745;23;20421;-88
2022/04/28 08:28:17;;;;;;;6.70;6.20;;;26.30;47.20;;;;;;6120780;23;20464;-87
2022/04/28 08:30:44;;;;;;;8.27;7.57;;;26.20;47.00;;;;;;6112066;23;20417;-88
2022/04/28 08:33:10;;;;;;;7.03;6.53;;;26.30;46.10;;;;;;6117339;23;20499;-89
2022/04/28 08:35:37;;;;;;;5.93;5.43;;;27.20;44.30;;;;;;6112603;23;20431;-89
2022/04/28 08:38:04;;;;;;;5.63;5.23;;;27.70;43.40;;;;;;6098165;23;20436;-89
2022/04/28 08:40:33;;;;;;;6.87;5.10;;;26.90;43.40;;;;;;6097743;23;20450;-89
2022/04/28 08:43:04;;;;;;;7.57;6.20;;;27.40;42.70;;;;;;6097834;23;20852;-89
2022/04/28 08:45:38;;;;;;;5.63;5.23;;;27.40;42.00;;;;;;6100731;23;20400;-88
2022/04/28 08:48:07;;;;;;;5.53;5.13;;;28.00;41.40;;;;;;6098381;23;20700;-88
2022/04/28 08:50:35;;;;;;;5.63;5.20;;;28.10;41.00;;;;;;6098639;23;20723;-88
2022/04/28 08:53:04;;;;;;;6.93;4.63;;;28.30;39.70;;;;;;6111168;23;20408;-88
2022/04/28 08:55:33;;;;;;;5.13;4.63;;;28.10;39.60;;;;;;6104937;23;20735;-88
2022/04/28 08:58:00;;;;;;;4.83;4.43;;;29.00;38.30;;;;;;6098301;23;20415;-89
2022/04/28 09:00:27;;;;;;;5.47;4.97;;;28.80;37.90;;;;;;6105758;23;20444;-88
2022/04/28 09:02:53;;;;;;;5.33;4.50;;;28.30;37.90;;;;;;6123134;23;20466;-88
2022/04/28 09:05:20;;;;;;;4.90;3.70;;;29.00;37.30;;;;;;6098247;23;20425;-89
2022/04/28 09:07:48;;;;;;;4.90;4.50;;;28.90;36.50;;;;;;6098775;23;20463;-89
2022/04/28 09:10:33;;;;;;;4.87;4.40;;;28.80;36.10;;;;;;6097728;23;20532;-89
2022/04/28 09:14:09;;;;;;;5.00;4.60;;;27.40;37.30;;;;;;6099335;23;20416;-89
2022/04/28 09:15:50;;;;;;;6.13;4.67;;;26.10;37.60;;;;;;6097405;23;20432;-89
2022/04/28 09:18:18;;;;;;;4.47;4.10;;;25.70;39.70;;;;;;6097687;23;20411;-89
2022/04/28 09:20:46;;;;;;;3.90;3.60;;;25.60;36.40;;;;;;6098180;23;20428;-89
2022/04/28 09:23:14;;;;;;;4.37;3.80;;;25.50;37.40;;;;;;6116741;23;20409;-89
2022/04/28 09:25:43;;;;;;;3.50;3.20;;;25.90;36.00;;;;;;6119649;23;20435;-89
2022/04/28 09:28:11;;;;;;;4.40;4.00;;;25.40;35.40;;;;;;6108092;23;20412;-89
2022/04/28 09:30:49;;;;;;;4.53;4.13;;;24.50;37.10;;;;;;6122824;23;20445;-89
2022/04/28 09:33:17;;;;;;;4.23;3.83;;;24.50;37.50;;;;;;6116461;23;20424;-89
2022/04/28 09:35:51;;;;;;;4.20;3.80;;;24.80;39.00;;;;;;6116618;23;20424;-88
2022/04/28 09:38:18;;;;;;;3.97;3.63;;;25.20;37.20;;;;;;6116273;23;20395;-87
2022/04/28 09:43:32;;;;;;;7.20;3.60;;;26.80;35.70;;;;;;6106993;23;20405;-89
2022/04/28 09:46:00;;;;;;;3.97;3.67;;;27.10;34.30;;;;;;6111591;23;20426;-89
2022/04/28 09:48:30;;;;;;;3.83;3.53;;;28.00;33.60;;;;;;6112435;23;20936;-89
2022/04/28 09:51:04;;;;;;;4.43;4.03;;;28.70;33.30;;;;;;6102105;23;20439;-90
2022/04/28 09:53:33;;;;;;;7.07;3.83;;;28.00;32.00;;;;;;6112676;23;20396;-88
2022/04/28 09:56:04;;;;;;;3.87;3.57;;;27.10;33.00;;;;;;6113912;23;20521;-89
2022/04/28 09:58:32;;;;;;;3.83;3.40;;;26.90;33.30;;;;;;6105146;23;20407;-89
2022/04/28 10:01:02;;;;;;;3.53;3.23;;;27.90;32.80;;;;;;6110346;23;20479;-89
2022/04/28 10:03:33;;;;;;;3.60;3.30;;;27.30;32.00;;;;;;6122157;23;20383;-89
2022/04/28 10:06:02;;;;;;;4.30;3.60;;;26.90;34.20;;;;;;6103559;23;20471;-89
2022/04/28 10:08:30;;;;;;;4.30;4.00;;;27.70;33.20;;;;;;6104337;23;20415;-88
2022/04/28 10:10:57;;;;;;;5.60;5.07;;;27.60;33.30;;;;;;6108143;23;20412;-90
2022/04/28 10:13:28;;;;;;;4.10;3.80;;;27.20;33.00;;;;;;6116581;23;20493;-89
2022/04/28 10:15:58;;;;;;;4.67;4.20;;;27.40;33.50;;;;;;6110440;23;20454;-89
2022/04/28 10:18:30;;;;;;;4.17;3.50;;;28.10;32.20;;;;;;6105118;23;20397;-89
2022/04/28 10:21:00;;;;;;;4.37;3.97;;;28.40;32.10;;;;;;6104021;23;20462;-90
2022/04/28 10:35:02;;;;;;;4.10;3.70;;;29.70;31.80;;;;;;6107297;23;20440;-88
2022/04/28 10:37:31;;;;;;;3.80;3.50;;;30.50;30.30;;;;;;6117657;23;20424;-90
2022/04/28 10:39:58;;;;;;;4.23;3.80;;;30.80;29.90;;;;;;6108608;23;20433;-89
2022/04/28 10:42:57;;;;;;;4.30;4.00;;;30.70;29.90;;;;;;6101313;23;20434;-89
2022/04/28 10:45:28;;;;;;;4.17;3.87;;;29.30;30.00;;;;;;6119385;23;20416;-88
2022/04/28 10:48:20;;;;;;;4.63;4.23;;;28.40;31.80;;;;;;6125005;23;20396;-89
2022/04/28 10:51:13;;;;;;;3.83;3.53;;;30.00;31.40;;;;;;6119778;23;20939;-88
2022/04/28 10:54:07;;;;;;;3.50;3.20;;;31.10;29.90;;;;;;6099671;23;20397;-89
2022/04/28 10:57:01;;;;;;;4.00;3.70;;;31.10;29.30;;;;;;6100619;23;20450;-89
2022/04/28 10:59:38;;;;;;;3.97;3.70;;;30.60;29.30;;;;;;6089485;23;20866;-89
2022/04/28 11:02:43;;;;;;;3.97;3.67;;;30.40;30.00;;;;;;6096713;23;20776;-90
2022/04/28 11:05:32;;;;;;;3.57;3.20;;;31.20;29.40;;;;;;6103935;23;20843;-90
2022/04/28 11:08:01;;;;;;;3.50;3.30;;;31.00;29.40;;;;;;6103947;23;20417;-89
2022/04/28 11:10:28;;;;;;;4.40;4.10;;;31.90;29.00;;;;;;6113767;23;20487;-89
2022/04/28 11:12:55;;;;;;;4.00;3.60;;;32.30;28.60;;;;;;6115793;23;20440;-89
2022/04/28 11:15:25;;;;;;;4.37;4.07;;;31.40;28.00;;;;;;6102537;23;20405;-89
2022/04/28 11:18:01;;;;;;;3.77;3.47;;;29.40;29.40;;;;;;6106193;23;20404;-89
2022/04/28 11:20:29;;;;;;;3.47;3.17;;;29.60;29.70;;;;;;6123599;23;20507;-90
2022/04/28 11:22:58;;;;;;;3.87;3.57;;;29.90;29.40;;;;;;6123687;23;20409;-89
2022/04/28 11:25:24;;;;;;;5.00;3.73;;;30.30;29.60;;;;;;6105425;23;20439;-90
2022/04/28 11:27:52;;;;;;;4.20;3.30;;;31.00;29.00;;;;;;6099626;23;20423;-90
2022/04/28 11:30:21;;;;;;;3.80;3.50;;;31.70;29.20;;;;;;6097004;23;20404;-90
2022/04/28 11:32:51;;;;;;;3.83;3.53;;;31.40;27.90;;;;;;6101408;23;20839;-88
2022/04/28 11:35:20;;;;;;;3.97;3.57;;;30.30;28.30;;;;;;6099115;23;20396;-90
2022/04/28 11:37:48;;;;;;;4.00;3.70;;;30.20;28.60;;;;;;6098752;23;20412;-90
2022/04/28 11:40:16;;;;;;;5.40;3.97;;;30.70;28.90;;;;;;6099672;23;20445;-90
2022/04/28 11:42:45;;;;;;;3.37;3.13;;;30.90;28.80;;;;;;6103499;23;20405;-90
2022/04/28 11:45:13;;;;;;;3.60;3.30;;;31.20;28.10;;;;;;6099602;23;20419;-90
2022/04/28 11:47:45;;;;;;;3.73;3.50;;;31.40;28.70;;;;;;6100205;23;20423;-89
2022/04/28 11:50:22;;;;;;;5.00;3.70;;;30.90;28.20;;;;;;6099963;23;20389;-90
2022/04/28 11:52:59;;;;;;;3.60;3.13;;;31.40;27.90;;;;;;6097662;23;20432;-90
2022/04/28 11:55:28;;;;;;;5.93;4.20;;;31.30;28.30;;;;;;6106868;23;20474;-88
2022/04/28 11:57:56;;;;;;;4.30;3.37;;;31.50;27.60;;;;;;6112438;23;20419;-90
2022/04/28 12:00:25;;;;;;;4.17;3.80;;;32.50;27.40;;;;;;6110958;23;20447;-85
2022/04/28 12:02:53;;;;;;;3.90;3.60;;;32.70;27.20;;;;;;6104953;23;20404;-87
2022/04/28 12:05:22;;;;;;;3.40;3.10;;;32.00;28.10;;;;;;6118125;23;20404;-87
2022/04/28 12:07:54;;;;;;;4.77;3.43;;;32.90;27.80;;;;;;6117757;23;20408;-86
2022/04/28 12:15:56;;;;;;;3.20;3.00;;;31.30;26.50;;;;;;6103417;23;20432;-88
2022/04/28 12:21:21;;;;;;;3.40;3.10;;;31.20;27.40;;;;;;6121462;23;20451;-88
2022/04/28 12:23:50;;;;;;;3.87;3.33;;;30.60;27.90;;;;;;6112941;23;20397;-89
2022/04/28 12:26:21;;;;;;;3.23;3.03;;;30.90;28.20;;;;;;6102238;23;20519;-87
2022/04/28 12:28:48;;;;;;;3.60;3.30;;;30.80;27.70;;;;;;6098789;23;20460;-85
2022/04/28 12:31:26;;;;;;;3.30;3.00;;;30.90;27.80;;;;;;6110890;23;20401;-89
2022/04/28 12:33:53;;;;;;;3.17;2.97;;;31.80;27.40;;;;;;6124441;23;20376;-89
2022/04/28 12:36:22;;;;;;;3.00;2.80;;;32.60;26.20;;;;;;6123489;23;20516;-88
2022/04/28 12:38:52;;;;;;;3.63;3.33;;;33.00;25.80;;;;;;6123562;23;20401;-88
2022/04/28 12:41:21;;;;;;;5.10;3.30;;;33.40;26.30;;;;;;6125212;23;20420;-88
2022/04/28 12:43:50;;;;;;;3.63;3.33;;;32.50;26.10;;;;;;6124898;23;20444;-88
2022/04/28 12:46:21;;;;;;;3.10;2.90;;;30.90;27.00;;;;;;6123740;23;20424;-88
2022/04/28 12:48:54;;;;;;;3.40;3.10;;;30.30;27.90;;;;;;6125236;23;20389;-88
2022/04/28 12:51:24;;;;;;;4.37;3.43;;;30.50;26.40;;;;;;6124556;23;20425;-87
2022/04/28 12:53:52;;;;;;;2.90;2.70;;;30.90;26.90;;;;;;6119932;23;20405;-87
2022/04/28 12:56:28;;;;;;;5.90;3.63;;;30.70;27.40;;;;;;6103894;23;20425;-88
2022/04/28 12:58:57;;;;;;;4.17;3.77;;;30.20;27.40;;;;;;6102493;23;20926;-88
2022/04/28 13:01:25;;;;;;;3.33;2.97;;;31.60;27.40;;;;;;6108480;23;20444;-89
2022/04/28 13:03:56;;;;;;;3.30;3.00;;;32.30;26.60;;;;;;6109623;23;20414;-88
2022/04/28 13:06:27;;;;;;;3.70;3.33;;;32.30;26.30;;;;;;6108381;23;20460;-88
2022/04/28 13:08:55;;;;;;;3.63;3.17;;;32.10;25.90;;;;;;6112221;23;20707;-88
2022/04/28 13:11:28;;;;;;;3.80;3.50;;;30.40;27.40;;;;;;6108511;23;20404;-89
2022/04/28 13:13:56;;;;;;;4.20;3.50;;;29.00;27.80;;;;;;6102774;23;20397;-89
2022/04/28 13:16:23;;;;;;;3.00;2.80;;;29.70;28.10;;;;;;6101677;23;20442;-89
2022/04/28 13:18:50;;;;;;;3.70;3.40;;;30.90;27.40;;;;;;6101174;23;20412;-88
2022/04/28 13:21:17;;;;;;;3.00;2.80;;;31.70;27.10;;;;;;6101931;23;20444;-88
2022/04/28 13:23:47;;;;;;;4.27;3.90;;;32.80;25.70;;;;;;6101234;23;20419;-89